Time;durP1;ratioP1;P1;durP2;ratioP2;P2;SDS_P1;SDS_P2;PMS_P1;PMS_P2;Temp;Humidity;BMP_temperature;BMP_pressure;BME280_temperature;BME280_humidity;BME280_pressure;Samples;Min_cycle;Max_cycle;Signal;HPM_P1;HPM_P2
2023/01/03 00:01:14;;;;;;;1.50;0.57;;;12.60;56.30;;;;;;5040871;28;20398;-47
2023/01/03 00:03:41;;;;;;;3.47;0.75;;;12.50;56.20;;;;;;5044918;28;20053;-49
2023/01/03 00:06:15;;;;;;;1.98;0.70;;;12.60;56.30;;;;;;5043888;28;20061;-48
2023/01/03 00:08:42;;;;;;;2.50;0.77;;;12.50;56.20;;;;;;5043754;28;20479;-46
2023/01/03 00:11:12;;;;;;;2.33;0.90;;;12.50;56.20;;;;;;5042869;28;20056;-45
2023/01/03 00:13:38;;;;;;;2.25;0.50;;;12.50;56.20;;;;;;5042260;28;20052;-48
2023/01/03 00:16:14;;;;;;;2.60;0.73;;;12.40;56.10;;;;;;5041401;28;20512;-46
2023/01/03 00:18:42;;;;;;;2.22;0.80;;;12.40;56.10;;;;;;5043827;28;20044;-46
2023/01/03 00:21:09;;;;;;;1.30;0.57;;;12.40;56.10;;;;;;5041473;28;20053;-46
2023/01/03 00:23:37;;;;;;;1.67;0.60;;;12.40;56.00;;;;;;5041112;28;20061;-45
2023/01/03 00:26:10;;;;;;;2.22;0.70;;;12.40;56.00;;;;;;5043252;28;20381;-43
2023/01/03 00:28:37;;;;;;;1.95;0.60;;;12.30;55.90;;;;;;5039940;28;20587;-43
2023/01/03 00:31:06;;;;;;;3.42;0.63;;;12.30;55.80;;;;;;5042571;28;20053;-42
2023/01/03 00:33:34;;;;;;;3.50;0.75;;;12.30;55.70;;;;;;5043333;28;20052;-45
2023/01/03 00:36:03;;;;;;;3.08;0.60;;;12.20;55.60;;;;;;5043394;28;20052;-46
2023/01/03 00:38:30;;;;;;;2.42;0.63;;;12.20;55.60;;;;;;5042408;28;20067;-47
2023/01/03 00:41:04;;;;;;;2.38;0.40;;;12.20;55.50;;;;;;5043333;28;20049;-46
2023/01/03 00:43:32;;;;;;;5.25;0.70;;;12.10;55.40;;;;;;5038907;28;20060;-50
2023/01/03 00:45:59;;;;;;;5.38;0.60;;;12.10;55.50;;;;;;5039156;28;20060;-48
2023/01/03 00:48:27;;;;;;;1.73;0.40;;;12.10;55.60;;;;;;5043784;28;20053;-44
2023/01/03 00:50:55;;;;;;;1.95;0.60;;;12.10;55.60;;;;;;5043245;28;20049;-48
2023/01/03 00:53:24;;;;;;;2.05;0.50;;;12.10;55.60;;;;;;5041298;28;20580;-50
2023/01/03 00:55:51;;;;;;;2.75;0.60;;;12.10;55.70;;;;;;5040674;28;20049;-46
2023/01/03 00:58:18;;;;;;;3.42;0.70;;;12.10;55.70;;;;;;5041028;28;20049;-46
2023/01/03 01:00:45;;;;;;;2.75;0.70;;;12.10;55.70;;;;;;5040286;28;20417;-48
2023/01/03 01:03:16;;;;;;;1.17;0.57;;;12.10;55.70;;;;;;5043888;28;20064;-46
2023/01/03 01:05:43;;;;;;;1.98;0.40;;;12.10;55.70;;;;;;5042380;28;20060;-48
2023/01/03 01:08:10;;;;;;;3.10;0.45;;;12.10;55.70;;;;;;5042051;28;20048;-47
2023/01/03 01:11:00;;;;;;;16.60;1.33;;;12.10;55.80;;;;;;5041132;28;20045;-47
2023/01/03 01:13:28;;;;;;;2.75;0.60;;;12.10;55.90;;;;;;5038511;28;20114;-49
2023/01/03 01:15:55;;;;;;;1.80;0.50;;;12.10;55.90;;;;;;5038851;28;20064;-45
2023/01/03 01:18:22;;;;;;;2.17;0.50;;;12.10;55.90;;;;;;5042753;28;20079;-48
2023/01/03 01:20:49;;;;;;;3.40;0.60;;;12.10;55.90;;;;;;5041477;28;20045;-44
2023/01/03 01:23:16;;;;;;;1.83;0.65;;;12.10;55.90;;;;;;5042344;28;20060;-44
2023/01/03 01:25:45;;;;;;;1.98;0.65;;;12.10;55.90;;;;;;5041630;28;20505;-43
2023/01/03 01:28:12;;;;;;;1.30;0.55;;;12.10;56.00;;;;;;5040176;28;20052;-45
2023/01/03 01:30:39;;;;;;;1.48;0.40;;;12.10;56.10;;;;;;5038536;28;20056;-49
2023/01/03 01:33:06;;;;;;;1.17;0.68;;;12.10;56.10;;;;;;5042263;28;20052;-43
2023/01/03 01:35:33;;;;;;;2.35;0.60;;;12.10;56.10;;;;;;5041433;28;20052;-45
2023/01/03 01:38:00;;;;;;;2.47;0.50;;;12.10;56.20;;;;;;5042775;28;20516;-44
2023/01/03 01:40:28;;;;;;;2.33;0.43;;;12.10;56.20;;;;;;5040699;28;20049;-43
2023/01/03 01:45:46;;;;;;;1.10;0.55;;;12.10;56.30;;;;;;5043380;28;20063;-43
2023/01/03 01:48:15;;;;;;;2.15;0.45;;;12.10;56.30;;;;;;5042955;28;20416;-44
2023/01/03 01:50:45;;;;;;;3.20;0.65;;;12.10;56.30;;;;;;5041272;28;20060;-45
2023/01/03 01:53:14;;;;;;;1.48;0.70;;;12.10;56.30;;;;;;5040533;28;20416;-41
2023/01/03 01:55:46;;;;;;;2.92;0.70;;;12.10;56.40;;;;;;5036906;28;20515;-44
2023/01/03 01:58:16;;;;;;;2.10;0.68;;;12.10;56.40;;;;;;5039390;28;20055;-46
2023/01/03 02:00:44;;;;;;;0.90;0.50;;;12.10;56.50;;;;;;5041227;28;20055;-43
2023/01/03 02:03:12;;;;;;;2.45;0.50;;;12.10;56.50;;;;;;5042169;28;20063;-44
2023/01/03 02:05:44;;;;;;;3.10;0.65;;;12.10;56.50;;;;;;5037259;28;20060;-42
2023/01/03 02:08:11;;;;;;;1.73;0.50;;;12.10;56.40;;;;;;5040189;28;20056;-45
2023/01/03 02:10:57;;;;;;;1.92;0.60;;;12.10;56.40;;;;;;5040059;28;20572;-45
2023/01/03 02:13:35;;;;;;;1.55;0.50;;;12.10;56.40;;;;;;5036463;28;20056;-47
2023/01/03 02:16:20;;;;;;;1.23;0.63;;;12.10;56.30;;;;;;5040929;28;20053;-49
2023/01/03 02:18:54;;;;;;;1.52;0.60;;;12.10;56.20;;;;;;5041060;28;20053;-43
2023/01/03 02:21:58;;;;;;;1.35;0.40;;;12.10;56.10;;;;;;5040694;28;20055;-45
2023/01/03 02:24:48;;;;;;;2.80;0.60;;;12.10;56.00;;;;;;5036971;28;20064;-44
2023/01/03 02:27:39;;;;;;;1.10;0.40;;;12.10;56.10;;;;;;5040190;28;20061;-43
2023/01/03 02:30:31;;;;;;;0.98;0.50;;;12.10;56.10;;;;;;5036702;28;20053;-47
2023/01/03 02:33:09;;;;;;;2.85;0.65;;;12.10;56.10;;;;;;5041268;28;20060;-45
2023/01/03 02:35:42;;;;;;;1.27;0.47;;;12.10;56.20;;;;;;5041844;28;20072;-42
2023/01/03 02:38:20;;;;;;;2.40;0.55;;;12.10;56.20;;;;;;5036572;28;20049;-42
2023/01/03 02:40:52;;;;;;;4.10;0.60;;;12.10;56.20;;;;;;5037865;28;20049;-43
2023/01/03 02:43:26;;;;;;;2.05;0.52;;;12.10;56.10;;;;;;5039931;28;20064;-45
2023/01/03 02:46:05;;;;;;;1.75;0.60;;;12.10;56.00;;;;;;5039400;28;20492;-44
2023/01/03 02:48:45;;;;;;;2.13;1.05;;;12.10;56.00;;;;;;5041245;28;20049;-43
2023/01/03 02:51:17;;;;;;;1.20;0.55;;;12.10;55.90;;;;;;5041225;28;20052;-45
2023/01/03 02:53:48;;;;;;;1.73;0.47;;;12.10;56.00;;;;;;5040028;28;20059;-49
2023/01/03 02:56:20;;;;;;;1.55;0.50;;;12.10;56.00;;;;;;5037755;28;20071;-45
2023/01/03 02:58:52;;;;;;;1.90;0.57;;;12.10;56.00;;;;;;5039129;28;20052;-48
2023/01/03 03:01:21;;;;;;;2.28;0.80;;;12.10;55.90;;;;;;5040697;28;20516;-49
2023/01/03 03:03:49;;;;;;;1.83;0.63;;;12.10;55.80;;;;;;5039501;28;20056;-49
2023/01/03 03:06:23;;;;;;;5.95;0.52;;;12.10;55.70;;;;;;5041248;28;20523;-44
2023/01/03 03:08:50;;;;;;;1.65;0.60;;;12.10;55.70;;;;;;5034646;28;20053;-44
2023/01/03 03:14:08;;;;;;;1.55;0.57;;;12.10;55.70;;;;;;5048465;28;20517;-43
2023/01/03 03:16:47;;;;;;;2.65;0.60;;;12.10;55.70;;;;;;5045391;28;20053;-43
2023/01/03 03:25:11;;;;;;;1.67;0.60;;;12.10;55.90;;;;;;5041278;28;20064;-42
2023/01/03 03:30:30;;;;;;;3.28;0.70;;;12.10;55.80;;;;;;5049296;28;20520;-43
2023/01/03 03:33:04;;;;;;;4.25;0.75;;;12.10;55.60;;;;;;5045165;28;20057;-43
2023/01/03 03:35:33;;;;;;;;;;;12.10;55.50;;;;;;5041059;28;20060;-42
2023/01/03 03:38:03;;;;;;;2.15;0.60;;;12.10;55.50;;;;;;5041593;28;19932;-43
2023/01/03 03:46:16;;;;;;;3.28;0.80;;;12.10;55.40;;;;;;5049378;28;20052;-44
2023/01/03 03:51:37;;;;;;;8.05;0.80;;;12.10;55.50;;;;;;5048779;28;20064;-44
2023/01/03 03:54:11;;;;;;;0.93;0.40;;;12.10;55.40;;;;;;5042547;28;20064;-43
2023/01/03 03:56:41;;;;;;;1.98;0.50;;;12.10;55.40;;;;;;5043816;28;20048;-44
2023/01/03 03:59:10;;;;;;;1.90;0.60;;;12.10;55.40;;;;;;5043801;28;20300;-43
2023/01/03 04:01:39;;;;;;;4.20;0.70;;;12.10;55.40;;;;;;5043860;28;20045;-43
2023/01/03 04:04:13;;;;;;;3.47;0.75;;;12.10;55.40;;;;;;5043999;28;20049;-45
2023/01/03 04:06:46;;;;;;;1.38;0.52;;;12.10;55.30;;;;;;5044774;28;20403;-45
2023/01/03 04:09:14;;;;;;;1.60;0.70;;;12.10;55.30;;;;;;5041643;28;20064;-42
2023/01/03 04:11:41;;;;;;;0.82;0.50;;;12.10;55.40;;;;;;5042447;28;20504;-41
2023/01/03 04:14:09;;;;;;;1.65;0.52;;;12.20;55.50;;;;;;5044295;28;20057;-47
2023/01/03 04:16:36;;;;;;;0.95;0.60;;;12.20;55.50;;;;;;5042459;28;20055;-42
2023/01/03 04:19:04;;;;;;;1.52;0.50;;;12.20;55.40;;;;;;5042385;28;20053;-44
2023/01/03 04:21:33;;;;;;;1.58;0.50;;;12.20;55.40;;;;;;5042195;28;20492;-43
2023/01/03 04:24:00;;;;;;;2.60;0.75;;;12.20;55.40;;;;;;5040511;28;20049;-44
2023/01/03 04:26:27;;;;;;;1.90;0.50;;;12.20;55.30;;;;;;5040733;28;20401;-48
2023/01/03 04:28:54;;;;;;;3.83;0.55;;;12.20;55.30;;;;;;5043005;28;20048;-44
2023/01/03 04:31:22;;;;;;;1.95;0.47;;;12.20;55.30;;;;;;5043257;28;20481;-42
2023/01/03 04:33:52;;;;;;;1.08;0.50;;;12.20;55.30;;;;;;5043776;28;20068;-42
2023/01/03 04:36:20;;;;;;;3.10;0.47;;;12.20;55.30;;;;;;5041408;28;20072;-43
2023/01/03 04:38:48;;;;;;;1.67;0.50;;;12.20;55.70;;;;;;5040903;28;20497;-46
2023/01/03 04:41:16;;;;;;;0.43;0.43;;;12.20;55.20;;;;;;5042555;28;20404;-43
2023/01/03 04:46:35;;;;;;;1.10;0.63;;;12.20;55.20;;;;;;5030215;28;20412;-42
2023/01/03 04:49:04;;;;;;;1.13;0.40;;;12.20;55.10;;;;;;5040920;28;20064;-46
2023/01/03 04:51:32;;;;;;;1.63;0.52;;;12.20;55.10;;;;;;5031436;28;20124;-42
2023/01/03 04:54:01;;;;;;;1.95;0.50;;;12.20;55.00;;;;;;5039618;28;20049;-45
2023/01/03 04:56:30;;;;;;;1.92;0.50;;;12.20;55.00;;;;;;5041539;28;20071;-44
2023/01/03 04:58:58;;;;;;;5.38;0.50;;;12.20;54.90;;;;;;5040093;28;20053;-42
2023/01/03 05:01:26;;;;;;;3.78;0.60;;;12.20;54.90;;;;;;5036669;28;20049;-43
2023/01/03 05:03:58;;;;;;;6.53;0.82;;;12.20;54.90;;;;;;5037175;28;20053;-43
2023/01/03 05:06:25;;;;;;;2.13;0.50;;;12.20;55.30;;;;;;5042271;28;20511;-44
2023/01/03 05:08:53;;;;;;;3.53;0.60;;;12.10;54.80;;;;;;5040997;28;20307;-43
2023/01/03 05:11:22;;;;;;;2.47;0.82;;;12.10;54.80;;;;;;5040965;28;20045;-47
2023/01/03 05:13:49;;;;;;;2.42;0.80;;;12.10;54.80;;;;;;5041987;28;20401;-43
2023/01/03 05:16:16;;;;;;;3.47;0.60;;;12.10;54.80;;;;;;5040506;28;20060;-45
2023/01/03 05:18:44;;;;;;;2.22;0.63;;;12.10;54.90;;;;;;5036795;28;20927;-43
2023/01/03 05:26:46;;;;;;;3.53;0.90;;;12.10;54.80;;;;;;5048269;28;20059;-45
2023/01/03 05:29:18;;;;;;;4.70;0.68;;;12.10;54.80;;;;;;5042704;28;20064;-42
2023/01/03 05:31:46;;;;;;;3.05;1.08;;;12.10;54.70;;;;;;5036934;28;20052;-43
2023/01/03 05:34:13;;;;;;;3.25;0.60;;;12.10;54.80;;;;;;5040369;28;20064;-46
2023/01/03 05:36:41;;;;;;;1.60;0.70;;;12.10;54.80;;;;;;5038961;28;20083;-43
2023/01/03 05:39:08;;;;;;;5.78;0.60;;;12.00;54.70;;;;;;5040651;28;20520;-44
2023/01/03 05:44:22;;;;;;;1.48;0.70;;;12.00;54.60;;;;;;5048128;28;20412;-43
2023/01/03 05:46:49;;;;;;;4.97;1.20;;;12.00;54.70;;;;;;5041266;28;20487;-44
2023/01/03 05:49:17;;;;;;;2.15;0.90;;;12.00;54.60;;;;;;5039714;28;20119;-42
2023/01/03 05:51:44;;;;;;;2.53;0.90;;;12.00;54.60;;;;;;5040685;28;20053;-42
2023/01/03 05:54:13;;;;;;;1.85;0.60;;;12.00;54.60;;;;;;5040239;28;20052;-46
2023/01/03 05:56:41;;;;;;;2.58;0.70;;;12.00;54.60;;;;;;5041056;28;20467;-43
2023/01/03 05:59:08;;;;;;;1.63;0.70;;;12.00;54.60;;;;;;5036707;28;20472;-43
2023/01/03 06:01:37;;;;;;;2.60;0.65;;;12.00;54.60;;;;;;5037062;28;20584;-42
2023/01/03 06:04:04;;;;;;;2.45;0.80;;;12.00;54.60;;;;;;5036701;28;20401;-46
2023/01/03 06:06:34;;;;;;;4.38;0.75;;;12.00;54.60;;;;;;5038223;28;20057;-42
2023/01/03 06:09:02;;;;;;;2.08;0.75;;;12.00;54.60;;;;;;5037452;28;20509;-46
2023/01/03 06:11:29;;;;;;;3.10;0.90;;;12.00;54.60;;;;;;5041261;28;20501;-46
2023/01/03 06:13:56;;;;;;;2.97;0.80;;;11.90;54.50;;;;;;5040568;28;20056;-45
2023/01/03 06:19:10;;;;;;;2.90;0.80;;;11.90;54.40;;;;;;5041521;28;20373;-45
2023/01/03 06:21:39;;;;;;;1.92;0.80;;;11.90;54.30;;;;;;5038196;28;20049;-44
2023/01/03 06:24:06;;;;;;;5.72;1.52;;;11.90;54.30;;;;;;5036389;28;20614;-44
2023/01/03 06:26:33;;;;;;;3.17;0.90;;;11.80;54.20;;;;;;5039085;28;20056;-44
2023/01/03 06:29:01;;;;;;;2.53;1.00;;;11.80;54.10;;;;;;5039655;28;20097;-48
2023/01/03 06:31:28;;;;;;;2.63;0.93;;;11.70;54.10;;;;;;5039600;28;20049;-42
2023/01/03 06:33:55;;;;;;;2.13;0.80;;;11.70;54.10;;;;;;5040928;28;20056;-45
2023/01/03 06:36:25;;;;;;;2.00;1.00;;;11.70;54.10;;;;;;5037233;28;20702;-41
2023/01/03 06:38:53;;;;;;;4.25;1.10;;;11.70;54.20;;;;;;5037477;28;20061;-43
2023/01/03 06:41:20;;;;;;;4.70;1.08;;;11.60;54.20;;;;;;5037321;28;20057;-43
2023/01/03 06:43:48;;;;;;;2.70;1.40;;;11.60;54.20;;;;;;5039159;28;20045;-43
2023/01/03 06:54:33;;;;;;;4.00;1.48;;;11.50;54.30;;;;;;5034783;28;19928;-45
2023/01/03 06:57:00;;;;;;;7.53;3.40;;;11.50;54.30;;;;;;5040692;28;20528;-42
2023/01/03 06:59:28;;;;;;;34.95;14.57;;;11.40;54.30;;;;;;5037665;28;20397;-43
2023/01/03 07:01:56;;;;;;;40.75;19.25;;;11.40;54.90;;;;;;5033834;28;20518;-41
2023/01/03 07:04:24;;;;;;;14.75;7.55;;;11.40;54.40;;;;;;5040586;28;20063;-46
2023/01/03 07:06:53;;;;;;;8.15;3.15;;;11.40;54.50;;;;;;5039682;28;20489;-45
2023/01/03 07:09:20;;;;;;;4.15;2.13;;;11.40;54.50;;;;;;5039048;28;20080;-46
2023/01/03 07:11:47;;;;;;;4.00;2.05;;;11.30;54.60;;;;;;5038237;28;20516;-46
2023/01/03 07:14:13;;;;;;;2.63;1.77;;;11.30;54.60;;;;;;5038518;28;20053;-47
2023/01/03 07:16:42;;;;;;;3.75;1.80;;;11.30;54.70;;;;;;5040946;28;20048;-42
2023/01/03 07:19:12;;;;;;;5.38;2.15;;;11.30;54.70;;;;;;5038023;28;20049;-41
2023/01/03 07:21:40;;;;;;;5.43;2.42;;;11.30;54.70;;;;;;5038217;28;20053;-46
2023/01/03 07:24:12;;;;;;;4.32;1.90;;;11.30;54.70;;;;;;5038224;28;20067;-44
2023/01/03 07:26:39;;;;;;;10.38;1.90;;;11.30;54.70;;;;;;5034912;28;20057;-48
2023/01/03 07:29:08;;;;;;;3.75;1.45;;;11.30;54.70;;;;;;5037064;28;20060;-44
2023/01/03 07:31:39;;;;;;;5.30;1.63;;;11.30;54.70;;;;;;5039119;28;20075;-40
2023/01/03 07:34:06;;;;;;;2.97;1.20;;;11.30;54.60;;;;;;5037572;28;20056;-43
2023/01/03 07:36:33;;;;;;;2.08;1.10;;;11.30;54.60;;;;;;5038224;28;20049;-44
2023/01/03 07:39:00;;;;;;;2.53;1.40;;;11.30;54.60;;;;;;5038138;28;20060;-43
2023/01/03 07:44:10;;;;;;;4.30;1.40;;;11.30;54.70;;;;;;5039875;28;20513;-47
2023/01/03 07:46:37;;;;;;;4.05;1.40;;;11.30;54.70;;;;;;5039948;28;20374;-46
2023/01/03 07:49:05;;;;;;;4.43;1.48;;;11.30;54.60;;;;;;5040468;28;20045;-48
2023/01/03 07:51:33;;;;;;;3.95;1.50;;;11.30;54.70;;;;;;5038445;28;20055;-43
2023/01/03 07:54:01;;;;;;;8.70;1.35;;;11.30;54.70;;;;;;5035093;28;20064;-42
2023/01/03 07:56:29;;;;;;;3.10;1.10;;;11.30;54.70;;;;;;5039900;28;20053;-42
2023/01/03 07:58:57;;;;;;;3.22;1.35;;;11.30;54.70;;;;;;5043694;28;20052;-43
2023/01/03 08:01:25;;;;;;;7.40;1.33;;;11.30;54.60;;;;;;5044185;28;20053;-44
2023/01/03 08:03:53;;;;;;;4.45;1.40;;;11.30;54.60;;;;;;5044571;28;20067;-44
2023/01/03 08:06:22;;;;;;;4.53;1.80;;;11.30;54.60;;;;;;5037640;28;20059;-43
2023/01/03 08:13:16;;;;;;;9.93;1.58;;;11.30;54.60;;;;;;5038125;28;20048;-48
2023/01/03 08:14:24;;;;;;;3.33;1.35;;;11.30;54.50;;;;;;5044896;28;20056;-47
2023/01/03 08:16:52;;;;;;;1.83;0.90;;;11.30;54.60;;;;;;5040016;28;20468;-47
2023/01/03 08:19:19;;;;;;;3.65;1.92;;;11.30;54.70;;;;;;5037940;28;20614;-45
2023/01/03 08:21:46;;;;;;;3.33;1.20;;;11.30;54.80;;;;;;5039168;28;20052;-43
2023/01/03 08:24:13;;;;;;;5.68;1.70;;;11.30;54.80;;;;;;5041785;28;20056;-43
2023/01/03 08:26:42;;;;;;;2.72;1.00;;;11.30;54.80;;;;;;5041479;28;20056;-42
2023/01/03 08:29:09;;;;;;;4.80;1.20;;;11.30;54.90;;;;;;5043118;28;20057;-42
2023/01/03 08:31:41;;;;;;;3.63;1.05;;;11.30;55.00;;;;;;5043435;28;20053;-45
2023/01/03 08:34:11;;;;;;;2.55;1.15;;;11.30;55.20;;;;;;5042672;28;20057;-44
2023/01/03 08:36:42;;;;;;;4.30;1.00;;;11.40;55.30;;;;;;5040621;28;20549;-41
2023/01/03 08:39:13;;;;;;;2.55;1.15;;;11.40;55.30;;;;;;5042018;28;20123;-45
2023/01/03 08:41:45;;;;;;;3.30;1.05;;;11.40;55.40;;;;;;5040156;28;20060;-45
2023/01/03 08:44:13;;;;;;;4.80;1.38;;;11.40;55.40;;;;;;5042171;28;20477;-43
2023/01/03 08:46:45;;;;;;;3.47;1.25;;;11.50;55.30;;;;;;5040890;28;20049;-43
2023/01/03 08:49:12;;;;;;;4.10;1.45;;;11.50;55.30;;;;;;5042548;28;20053;-44
2023/01/03 08:51:40;;;;;;;3.58;1.30;;;11.50;55.30;;;;;;5042972;28;20061;-47
2023/01/03 08:54:07;;;;;;;4.85;1.40;;;11.50;55.20;;;;;;5040658;28;20057;-41
2023/01/03 08:56:34;;;;;;;2.65;1.13;;;11.50;55.10;;;;;;5040036;28;20067;-43
2023/01/03 08:59:03;;;;;;;1.95;1.20;;;11.60;55.10;;;;;;5038164;28;20608;-43
2023/01/03 09:01:30;;;;;;;2.60;1.23;;;11.60;55.20;;;;;;5040714;28;20512;-43
2023/01/03 09:03:57;;;;;;;3.70;1.20;;;11.60;55.40;;;;;;5036196;28;20065;-47
2023/01/03 09:06:25;;;;;;;5.47;1.50;;;11.60;55.40;;;;;;5036467;28;20385;-48
2023/01/03 09:08:52;;;;;;;2.05;1.20;;;11.70;55.50;;;;;;5034734;28;20054;-44
2023/01/03 09:11:19;;;;;;;2.33;0.90;;;11.70;55.50;;;;;;5037075;28;20053;-44
2023/01/03 09:13:46;;;;;;;4.32;1.42;;;11.70;55.50;;;;;;5033813;28;20385;-45
2023/01/03 09:16:15;;;;;;;6.40;1.50;;;11.70;55.50;;;;;;5039012;28;20052;-45
2023/01/03 09:18:43;;;;;;;7.55;1.88;;;11.80;55.50;;;;;;5038875;28;20061;-43
2023/01/03 09:21:10;;;;;;;4.18;1.50;;;11.80;55.50;;;;;;5039119;28;20056;-44
2023/01/03 09:23:38;;;;;;;6.68;1.50;;;11.80;55.50;;;;;;5036147;28;20045;-48
2023/01/03 09:26:06;;;;;;;4.35;1.50;;;11.90;55.40;;;;;;5037063;28;20064;-42
2023/01/03 09:28:33;;;;;;;5.75;1.90;;;11.90;55.40;;;;;;5040345;28;20056;-41
2023/01/03 09:31:01;;;;;;;7.72;2.67;;;11.90;55.40;;;;;;5038942;28;20058;-48
2023/01/03 09:33:30;;;;;;;10.45;3.10;;;11.90;55.30;;;;;;5041111;28;20528;-41
2023/01/03 09:35:57;;;;;;;4.35;1.77;;;11.90;55.20;;;;;;5040822;28;20057;-44
2023/01/03 09:38:25;;;;;;;4.63;1.65;;;12.00;55.30;;;;;;5039149;28;20512;-43
2023/01/03 09:41:00;;;;;;;5.75;1.65;;;12.00;55.20;;;;;;5035728;28;20057;-44
2023/01/03 09:43:35;;;;;;;6.55;1.17;;;12.00;55.10;;;;;;5040144;28;20060;-44
2023/01/03 09:46:04;;;;;;;6.07;1.20;;;12.00;55.10;;;;;;5041405;28;20417;-42
2023/01/03 09:48:36;;;;;;;4.57;0.95;;;12.10;55.10;;;;;;5040102;28;20052;-43
2023/01/03 10:03:42;;;;;;;4.13;1.13;;;12.10;55.20;;;;;;5037530;28;20080;-47
2023/01/03 10:05:23;;;;;;;11.75;1.15;;;12.20;54.70;;;;;;5046392;28;20139;-42
2023/01/03 10:08:04;;;;;;;6.75;0.90;;;12.20;54.60;;;;;;5041873;28;20053;-46
2023/01/03 10:10:40;;;;;;;8.50;1.40;;;12.20;54.70;;;;;;5038015;28;20055;-47
2023/01/03 10:13:17;;;;;;;6.03;1.30;;;12.20;54.70;;;;;;5037547;28;20592;-44
2023/01/03 10:15:54;;;;;;;2.67;1.05;;;12.20;54.60;;;;;;5038096;28;20055;-44
2023/01/03 10:18:39;;;;;;;1.55;1.00;;;12.20;54.60;;;;;;5041021;28;20064;-42
2023/01/03 10:21:13;;;;;;;5.88;1.35;;;12.20;54.60;;;;;;5040757;28;20502;-46
2023/01/03 10:23:48;;;;;;;2.42;0.95;;;12.20;54.60;;;;;;5038207;28;20045;-45
2023/01/03 10:26:15;;;;;;;4.20;0.82;;;12.30;54.60;;;;;;5037828;28;20049;-43
2023/01/03 10:28:45;;;;;;;5.95;1.25;;;12.30;54.60;;;;;;5043279;28;20064;-43
2023/01/03 10:31:28;;;;;;;5.28;0.88;;;12.30;54.60;;;;;;5039667;28;20049;-43
2023/01/03 10:33:55;;;;;;;5.88;1.15;;;12.30;54.60;;;;;;5043244;28;20497;-43
2023/01/03 10:36:24;;;;;;;2.20;0.77;;;12.40;54.70;;;;;;5043197;28;20136;-42
2023/01/03 10:39:03;;;;;;;3.20;1.02;;;12.40;54.60;;;;;;5036612;28;20060;-46
2023/01/03 10:41:38;;;;;;;2.42;0.90;;;12.40;54.40;;;;;;5040941;28;20481;-43
2023/01/03 10:44:05;;;;;;;3.15;0.90;;;12.40;54.30;;;;;;5042583;28;20053;-44
2023/01/03 10:46:33;;;;;;;3.28;0.80;;;12.40;54.30;;;;;;5039986;28;20055;-45
2023/01/03 10:49:14;;;;;;;3.83;1.23;;;12.40;54.40;;;;;;5043130;28;20053;-45
2023/01/03 10:51:53;;;;;;;6.95;1.00;;;12.50;54.30;;;;;;5042910;28;20393;-42
2023/01/03 10:54:28;;;;;;;5.35;1.35;;;12.50;54.30;;;;;;5038222;28;20059;-43
2023/01/03 10:56:55;;;;;;;3.25;1.10;;;12.60;54.30;;;;;;5038742;28;20053;-46
2023/01/03 10:59:24;;;;;;;3.80;1.10;;;12.60;54.40;;;;;;5038940;28;20057;-43
2023/01/03 11:02:00;;;;;;;4.22;1.00;;;12.60;54.30;;;;;;5038074;28;20056;-44
2023/01/03 11:04:29;;;;;;;3.63;0.95;;;12.60;54.30;;;;;;5041627;28;20053;-50
2023/01/03 11:07:11;;;;;;;5.10;1.40;;;12.60;54.30;;;;;;5039397;28;21565;-45
2023/01/03 11:09:43;;;;;;;2.60;0.93;;;12.60;54.10;;;;;;5037070;28;20055;-44
2023/01/03 11:12:14;;;;;;;3.25;1.10;;;12.70;54.20;;;;;;5041772;28;20057;-42
2023/01/03 11:14:50;;;;;;;3.83;1.40;;;12.70;54.20;;;;;;5041725;28;20503;-43
2023/01/03 11:17:20;;;;;;;4.38;1.08;;;12.70;54.00;;;;;;5040569;28;20072;-43
2023/01/03 11:19:48;;;;;;;2.38;0.75;;;12.70;54.00;;;;;;5036853;28;20064;-42
2023/01/03 11:22:27;;;;;;;3.03;0.70;;;12.70;53.80;;;;;;5040063;28;20045;-42
2023/01/03 11:25:04;;;;;;;2.00;0.85;;;12.70;53.90;;;;;;5033313;28;20048;-44
2023/01/03 11:27:53;;;;;;;2.60;0.90;;;12.70;54.00;;;;;;5037381;28;20064;-44
2023/01/03 11:30:28;;;;;;;2.40;0.80;;;12.80;54.00;;;;;;5039893;28;20045;-46
2023/01/03 11:33:10;;;;;;;3.80;0.88;;;12.80;53.90;;;;;;5042363;28;20385;-45
2023/01/03 11:35:57;;;;;;;3.38;0.85;;;12.80;53.80;;;;;;5045909;28;20052;-42
2023/01/03 11:38:46;;;;;;;1.58;0.70;;;12.80;53.60;;;;;;5045400;28;20509;-43
2023/01/03 11:41:35;;;;;;;3.33;0.80;;;12.90;53.60;;;;;;5045579;28;20507;-42
2023/01/03 11:44:30;;;;;;;3.28;0.80;;;12.90;53.40;;;;;;5044147;28;20052;-45
2023/01/03 11:47:10;;;;;;;4.90;0.93;;;12.90;53.40;;;;;;5045964;28;20053;-45
2023/01/03 11:49:51;;;;;;;3.70;0.82;;;13.00;53.50;;;;;;5042430;28;20511;-46
2023/01/03 11:52:27;;;;;;;2.85;0.98;;;13.00;53.50;;;;;;5044296;28;20416;-45
2023/01/03 11:55:39;;;;;;;4.25;0.90;;;13.00;53.60;;;;;;5042913;28;20037;-42
2023/01/03 11:58:32;;;;;;;4.10;0.80;;;13.10;53.50;;;;;;5045701;28;20056;-43
2023/01/03 12:01:13;;;;;;;3.35;0.70;;;13.00;53.50;;;;;;5045128;28;20559;-42
2023/01/03 12:03:56;;;;;;;2.80;0.90;;;13.10;53.50;;;;;;5043728;28;20065;-42
2023/01/03 12:06:32;;;;;;;3.50;0.77;;;13.10;53.60;;;;;;5045368;28;20057;-43
2023/01/03 12:09:11;;;;;;;4.55;1.38;;;13.10;53.50;;;;;;5041782;28;20053;-42
2023/01/03 12:11:58;;;;;;;2.33;0.82;;;13.20;53.50;;;;;;5042032;28;21358;-45
2023/01/03 12:14:29;;;;;;;4.18;0.90;;;13.20;53.50;;;;;;5043387;28;20416;-45
2023/01/03 12:17:01;;;;;;;3.50;0.93;;;13.20;53.40;;;;;;5044205;28;20061;-45
2023/01/03 12:19:34;;;;;;;7.70;1.23;;;13.20;53.30;;;;;;5042245;28;20052;-46
2023/01/03 12:22:10;;;;;;;5.75;1.92;;;13.30;53.40;;;;;;5042529;28;20505;-43
2023/01/03 12:24:44;;;;;;;5.80;1.20;;;13.30;53.50;;;;;;5042638;28;20041;-42
2023/01/03 12:27:15;;;;;;;4.05;0.75;;;13.30;53.50;;;;;;5042267;28;20057;-46
2023/01/03 12:29:51;;;;;;;4.40;0.73;;;13.30;53.20;;;;;;5044166;28;20053;-46
2023/01/03 12:32:25;;;;;;;2.55;0.70;;;13.30;53.10;;;;;;5041179;28;20497;-47
2023/01/03 12:34:58;;;;;;;;;;;13.30;53.10;;;;;;5043011;28;20049;-45
2023/01/03 12:37:29;;;;;;;2.25;0.80;;;13.30;53.00;;;;;;5041520;28;19921;-47
2023/01/03 12:40:01;;;;;;;2.67;0.60;;;13.30;52.90;;;;;;5041381;28;20061;-42
2023/01/03 12:42:36;;;;;;;4.50;0.80;;;13.30;52.90;;;;;;5042120;28;20053;-46
2023/01/03 12:45:20;;;;;;;3.47;0.80;;;13.30;52.70;;;;;;5040917;28;20486;-42
2023/01/03 12:47:51;;;;;;;;;;;13.30;52.70;;;;;;5041328;28;20511;-44
2023/01/03 12:51:07;;;;;;;1.77;0.60;;;13.40;52.80;;;;;;5042198;28;19925;-44
2023/01/03 12:53:40;;;;;;;2.33;0.68;;;13.40;52.50;;;;;;5039179;28;20052;-45
2023/01/03 12:56:21;;;;;;;1.40;0.63;;;13.40;52.40;;;;;;5042823;28;20404;-43
2023/01/03 12:59:01;;;;;;;2.13;0.70;;;13.40;52.30;;;;;;5039476;28;20064;-47
2023/01/03 13:01:36;;;;;;;1.63;0.60;;;13.40;52.50;;;;;;5040187;28;20440;-45
2023/01/03 13:04:11;;;;;;;2.00;0.70;;;13.40;52.60;;;;;;5040931;28;20061;-44
2023/01/03 13:06:41;;;;;;;3.33;0.60;;;13.40;52.70;;;;;;5036037;28;20056;-43
2023/01/03 13:09:19;;;;;;;3.05;0.55;;;13.30;52.60;;;;;;5040155;28;20064;-48
2023/01/03 13:11:51;;;;;;;1.75;0.75;;;13.40;52.70;;;;;;5042716;28;20064;-43
2023/01/03 13:14:23;;;;;;;1.92;0.55;;;13.40;52.80;;;;;;5043385;28;20480;-48
2023/01/03 13:16:51;;;;;;;2.75;0.68;;;13.40;52.70;;;;;;5041556;28;20049;-45
2023/01/03 13:19:55;;;;;;;3.05;1.27;;;13.40;52.40;;;;;;5039704;28;20060;-45
2023/01/03 13:22:47;;;;;;;1.95;0.50;;;13.40;52.40;;;;;;5039726;28;20066;-46
2023/01/03 13:25:33;;;;;;;2.40;0.50;;;13.40;52.10;;;;;;5035053;28;20056;-45
2023/01/03 13:28:05;;;;;;;2.65;0.65;;;13.40;52.00;;;;;;5041390;28;20048;-45
2023/01/03 13:30:35;;;;;;;4.20;0.63;;;13.40;52.20;;;;;;5042217;28;20053;-47
2023/01/03 13:33:17;;;;;;;4.10;0.60;;;13.40;52.30;;;;;;5039489;28;20056;-45
2023/01/03 13:36:00;;;;;;;7.95;1.35;;;13.40;52.50;;;;;;5036711;28;20056;-46
2023/01/03 13:38:29;;;;;;;4.30;0.60;;;13.40;52.30;;;;;;5039398;28;20060;-47
2023/01/03 13:40:59;;;;;;;5.32;0.55;;;13.50;52.40;;;;;;5042203;28;20709;-43
2023/01/03 13:43:32;;;;;;;2.83;0.43;;;13.40;52.30;;;;;;5042094;28;20060;-43
2023/01/03 13:46:20;;;;;;;3.10;1.00;;;13.50;52.10;;;;;;5038623;28;20049;-45
2023/01/03 13:48:56;;;;;;;3.65;0.70;;;13.50;52.00;;;;;;5039396;28;20052;-44
2023/01/03 13:51:33;;;;;;;2.03;0.50;;;13.50;52.00;;;;;;5040559;28;20045;-45
2023/01/03 13:54:04;;;;;;;1.67;0.50;;;13.50;52.00;;;;;;5041566;28;20068;-45
2023/01/03 13:56:52;;;;;;;2.75;0.50;;;13.50;52.00;;;;;;5043377;28;20045;-48
2023/01/03 13:59:28;;;;;;;3.60;0.90;;;13.50;52.00;;;;;;5043313;28;20517;-45
2023/01/03 14:02:04;;;;;;;1.63;0.52;;;13.50;52.00;;;;;;5042586;28;20056;-47
2023/01/03 14:05:11;;;;;;;2.28;0.70;;;13.50;51.90;;;;;;5041455;28;20061;-42
2023/01/03 14:08:05;;;;;;;2.42;0.65;;;13.50;51.90;;;;;;5019238;28;20061;-44
2023/01/03 14:10:58;;;;;;;1.70;0.60;;;13.50;51.80;;;;;;5037360;28;20060;-47
2023/01/03 14:13:37;;;;;;;7.85;0.85;;;13.60;51.90;;;;;;5044161;28;20057;-42
2023/01/03 14:16:21;;;;;;;2.65;0.50;;;13.50;51.70;;;;;;5042993;28;20068;-44